createdAt,value
2023-04-30T00:01:02.261Z,12.40
2023-04-30T00:03:31.939Z,12.40
2023-04-30T00:06:01.776Z,12.30
2023-04-30T00:08:30.344Z,12.30
2023-04-30T00:10:58.624Z,12.30
2023-04-30T00:13:26.880Z,12.30
2023-04-30T00:15:54.992Z,12.30
2023-04-30T00:18:23.818Z,12.20
2023-04-30T00:20:53.693Z,12.20
2023-04-30T00:23:24.484Z,12.20
2023-04-30T00:25:52.759Z,12.20
2023-04-30T00:28:21.167Z,12.10
2023-04-30T00:30:49.519Z,12.10
2023-04-30T00:33:18.302Z,12.10
2023-04-30T00:35:46.882Z,12.10
2023-04-30T00:38:16.205Z,12.10
2023-04-30T00:40:46.074Z,12.00
2023-04-30T00:43:14.355Z,12.00
2023-04-30T00:45:43.375Z,12.00
2023-04-30T00:48:12.227Z,12.00
2023-04-30T00:50:42.967Z,12.00
2023-04-30T00:53:11.977Z,11.90
2023-04-30T00:55:42.425Z,11.90
2023-04-30T00:58:10.971Z,11.90
2023-04-30T01:00:39.155Z,12.00
2023-04-30T01:03:07.521Z,11.90
2023-04-30T01:05:35.798Z,11.90
2023-04-30T01:08:04.212Z,11.80
2023-04-30T01:10:42.400Z,11.90
2023-04-30T01:13:19.118Z,11.80
2023-04-30T01:15:58.658Z,11.80
2023-04-30T01:18:30.665Z,11.80
2023-04-30T01:21:03.654Z,11.80
2023-04-30T01:23:51.644Z,11.80
2023-04-30T01:26:37.202Z,11.90
2023-04-30T01:29:08.115Z,11.80
2023-04-30T01:31:38.049Z,11.80
2023-04-30T01:34:06.318Z,11.80
2023-04-30T01:36:48.091Z,11.80
2023-04-30T01:39:41.149Z,11.80
2023-04-30T01:42:15.142Z,11.80
2023-04-30T01:45:00.624Z,11.80
2023-04-30T01:47:36.755Z,11.80
2023-04-30T01:50:12.470Z,11.80
2023-04-30T01:52:43.175Z,11.80
2023-04-30T01:55:16.086Z,11.80
2023-04-30T01:57:47.579Z,11.80
2023-04-30T02:00:18.640Z,11.80
2023-04-30T02:02:46.807Z,11.80
2023-04-30T02:05:15.136Z,11.80
2023-04-30T02:07:45.835Z,11.80
2023-04-30T02:10:14.563Z,11.80
2023-04-30T02:12:42.906Z,11.80
2023-04-30T02:15:11.556Z,11.80
2023-04-30T02:17:41.225Z,11.80
2023-04-30T02:20:10.677Z,11.80
2023-04-30T02:22:39.162Z,11.80
2023-04-30T02:25:08.065Z,11.80
2023-04-30T02:27:37.103Z,11.80
2023-04-30T02:30:06.497Z,11.80
2023-04-30T02:32:34.955Z,11.80
2023-04-30T02:35:05.063Z,11.80
2023-04-30T02:37:33.161Z,11.80
2023-04-30T02:40:01.759Z,11.90
2023-04-30T02:42:30.224Z,11.80
2023-04-30T02:44:59.064Z,11.90
2023-04-30T02:47:27.552Z,11.90
2023-04-30T02:49:56.433Z,11.80
2023-04-30T02:52:27.794Z,11.80
2023-04-30T02:54:56.791Z,11.80
2023-04-30T02:57:24.859Z,11.80
2023-04-30T02:59:53.669Z,11.80
2023-04-30T03:02:23.658Z,11.80
2023-04-30T03:04:52.134Z,11.80
2023-04-30T03:07:20.348Z,11.80
2023-04-30T03:09:50.435Z,11.80
2023-04-30T03:12:18.694Z,11.70
2023-04-30T03:14:47.006Z,11.70
2023-04-30T03:17:15.321Z,11.70
2023-04-30T03:19:44.544Z,11.70
2023-04-30T03:22:12.786Z,11.70
2023-04-30T03:24:41.276Z,11.60
2023-04-30T03:27:10.985Z,11.60
2023-04-30T03:29:39.001Z,11.70
2023-04-30T03:32:07.082Z,11.60
2023-04-30T03:34:35.240Z,11.60
2023-04-30T03:37:04.125Z,11.60
2023-04-30T03:39:32.487Z,11.60
2023-04-30T03:42:01.927Z,11.60
2023-04-30T03:44:31.628Z,11.70
2023-04-30T03:47:00.053Z,11.60
2023-04-30T03:49:28.119Z,11.60
2023-04-30T03:51:56.645Z,11.60
2023-04-30T03:54:24.929Z,11.60
2023-04-30T03:56:54.391Z,11.60
2023-04-30T03:59:24.483Z,11.60
2023-04-30T04:01:54.690Z,11.60
2023-04-30T04:04:23.091Z,11.60
2023-04-30T04:06:53.664Z,11.50
2023-04-30T04:09:22.423Z,11.50
2023-04-30T04:11:50.380Z,11.50
2023-04-30T04:14:18.670Z,11.50
2023-04-30T04:16:46.998Z,11.50
2023-04-30T04:19:17.940Z,11.40
2023-04-30T04:21:46.710Z,11.50
2023-04-30T04:24:14.807Z,11.50
2023-04-30T04:26:43.228Z,11.50
2023-04-30T04:29:12.276Z,11.50
2023-04-30T04:31:42.291Z,11.60
2023-04-30T04:34:10.400Z,11.60
2023-04-30T04:36:40.078Z,11.60
2023-04-30T04:39:08.355Z,11.60
2023-04-30T04:41:37.322Z,11.60
2023-04-30T04:44:05.831Z,11.70
2023-04-30T04:46:34.505Z,11.60
2023-04-30T04:49:02.784Z,11.60
2023-04-30T04:51:32.481Z,11.60
2023-04-30T04:54:01.856Z,11.70
2023-04-30T04:56:29.942Z,11.70
2023-04-30T05:01:27.007Z,11.80
2023-04-30T05:03:55.531Z,11.80
2023-04-30T05:06:23.937Z,11.90
2023-04-30T05:08:52.361Z,11.90
2023-04-30T05:11:23.005Z,11.90
2023-04-30T05:13:51.348Z,11.90
2023-04-30T05:16:20.030Z,12.00
2023-04-30T05:18:48.035Z,12.00
2023-04-30T05:21:16.299Z,12.10
2023-04-30T05:23:45.294Z,12.10
2023-04-30T05:26:13.676Z,12.10
2023-04-30T05:28:43.361Z,12.10
2023-04-30T05:31:11.408Z,12.20
2023-04-30T05:33:40.904Z,12.20
2023-04-30T05:36:11.932Z,12.30
2023-04-30T05:38:40.233Z,12.40
2023-04-30T05:41:08.332Z,12.50
2023-04-30T05:43:36.290Z,12.50
2023-04-30T05:46:06.686Z,12.60
2023-04-30T05:48:34.870Z,12.60
2023-04-30T05:51:03.312Z,12.60
2023-04-30T05:53:31.902Z,12.60
2023-04-30T05:55:59.994Z,12.70
2023-04-30T05:58:30.397Z,12.80
2023-04-30T06:00:59.547Z,12.80
2023-04-30T06:03:29.019Z,12.80
2023-04-30T06:05:57.359Z,12.80
2023-04-30T06:08:26.030Z,12.90
2023-04-30T06:10:55.785Z,13.00
2023-04-30T06:13:24.010Z,13.00
2023-04-30T06:15:52.400Z,13.00
2023-04-30T06:18:21.107Z,13.20
2023-04-30T06:20:50.496Z,13.30
2023-04-30T06:23:18.810Z,13.50
2023-04-30T06:25:46.802Z,13.50
2023-04-30T06:28:15.177Z,13.70
2023-04-30T06:30:43.336Z,13.80
2023-04-30T06:33:11.515Z,13.90
2023-04-30T06:35:39.650Z,14.00
2023-04-30T06:38:09.000Z,14.00
2023-04-30T06:40:37.381Z,14.10
2023-04-30T06:43:06.404Z,14.20
2023-04-30T06:45:35.397Z,14.20
2023-04-30T06:48:03.711Z,14.30
2023-04-30T06:50:32.001Z,14.50
2023-04-30T06:53:00.032Z,14.60
2023-04-30T06:55:29.701Z,14.70
2023-04-30T06:57:58.323Z,14.80
2023-04-30T07:00:26.566Z,15.10
2023-04-30T07:02:54.912Z,15.30
2023-04-30T07:05:23.591Z,15.50
2023-04-30T07:07:51.762Z,15.60
2023-04-30T07:10:19.802Z,15.50
2023-04-30T07:12:49.660Z,15.70
2023-04-30T07:15:18.225Z,15.60
2023-04-30T07:17:46.432Z,15.40
2023-04-30T07:20:15.656Z,15.40
2023-04-30T07:22:44.565Z,15.50
2023-04-30T07:25:12.712Z,15.40
2023-04-30T07:27:42.394Z,15.50
2023-04-30T07:30:14.358Z,15.50
2023-04-30T07:32:42.795Z,15.50
2023-04-30T07:35:11.930Z,15.70
2023-04-30T07:37:41.220Z,15.90
2023-04-30T07:40:15.231Z,16.00
2023-04-30T07:42:45.854Z,16.00
2023-04-30T07:45:15.388Z,16.00
2023-04-30T07:47:43.507Z,16.00
2023-04-30T07:50:12.708Z,16.00
2023-04-30T07:52:40.677Z,15.90
2023-04-30T07:55:10.410Z,16.00
2023-04-30T07:57:38.753Z,15.90
2023-04-30T08:00:08.466Z,16.00
2023-04-30T08:02:39.448Z,16.10
2023-04-30T08:05:07.861Z,16.10
2023-04-30T08:07:35.939Z,16.20
2023-04-30T08:10:04.252Z,16.20
2023-04-30T08:12:32.614Z,16.20
2023-04-30T08:15:05.989Z,16.10
2023-04-30T08:17:34.806Z,16.10
2023-04-30T08:20:04.921Z,16.10
2023-04-30T08:22:33.620Z,16.30
2023-04-30T08:25:03.287Z,16.40
2023-04-30T08:27:33.856Z,16.50
2023-04-30T08:30:02.201Z,16.40
2023-04-30T08:32:30.952Z,16.50
2023-04-30T08:34:59.140Z,16.60
2023-04-30T08:37:28.659Z,16.70
2023-04-30T08:39:57.231Z,16.80
2023-04-30T08:42:33.733Z,16.90
2023-04-30T08:45:03.629Z,16.90
2023-04-30T08:47:32.217Z,17.10
2023-04-30T08:50:02.530Z,17.20
2023-04-30T08:52:36.058Z,17.30
2023-04-30T08:55:08.578Z,17.30
2023-04-30T08:57:40.343Z,17.50
2023-04-30T09:00:09.766Z,17.80
2023-04-30T09:02:41.775Z,17.70
2023-04-30T09:05:12.659Z,18.00
2023-04-30T09:07:49.028Z,18.10
2023-04-30T09:10:23.807Z,18.30
2023-04-30T09:13:04.134Z,18.30
2023-04-30T09:15:33.274Z,18.30
2023-04-30T09:18:10.100Z,18.00
2023-04-30T09:20:38.659Z,18.10
2023-04-30T09:23:09.881Z,18.20
2023-04-30T09:25:41.882Z,18.10
2023-04-30T09:28:11.749Z,18.10
2023-04-30T09:30:40.394Z,18.20
2023-04-30T09:33:11.629Z,18.50
2023-04-30T09:35:42.657Z,18.80
2023-04-30T09:38:31.096Z,18.80
2023-04-30T09:41:00.762Z,18.70
2023-04-30T09:43:30.087Z,18.50
2023-04-30T09:46:00.651Z,18.50
2023-04-30T09:48:31.533Z,18.30
2023-04-30T09:50:59.667Z,18.20
2023-04-30T09:53:30.653Z,18.20
2023-04-30T09:56:01.625Z,18.30
2023-04-30T09:58:32.980Z,18.60
2023-04-30T10:01:04.755Z,18.60
2023-04-30T10:03:33.686Z,18.80
2023-04-30T10:06:04.029Z,18.90
2023-04-30T10:08:45.243Z,19.00
2023-04-30T10:11:19.820Z,19.00
2023-04-30T10:13:53.136Z,19.50
2023-04-30T10:16:31.696Z,19.40
2023-04-30T10:19:04.928Z,19.40
2023-04-30T10:21:34.130Z,19.50
2023-04-30T10:24:05.279Z,19.70
2023-04-30T10:26:34.526Z,19.40
2023-04-30T10:29:05.587Z,19.70
2023-04-30T10:31:34.719Z,19.50
2023-04-30T10:34:10.600Z,19.50
2023-04-30T10:36:42.546Z,19.70
2023-04-30T10:39:12.828Z,19.90
2023-04-30T10:41:41.462Z,20.20
2023-04-30T10:44:09.837Z,19.70
2023-04-30T10:46:38.262Z,19.70
2023-04-30T10:49:06.950Z,19.70
2023-04-30T10:51:48.821Z,19.50
2023-04-30T10:54:26.986Z,19.40
2023-04-30T10:56:56.509Z,19.80
2023-04-30T10:59:24.850Z,19.90
2023-04-30T11:02:03.297Z,19.90
2023-04-30T11:04:31.454Z,19.80
2023-04-30T11:07:08.589Z,19.90
2023-04-30T11:09:41.162Z,20.00
2023-04-30T11:12:15.120Z,19.90
2023-04-30T11:14:45.078Z,19.70
2023-04-30T11:17:14.693Z,19.80
2023-04-30T11:19:49.698Z,19.90
2023-04-30T11:22:23.364Z,19.80
2023-04-30T11:25:03.768Z,19.60
2023-04-30T11:27:33.472Z,19.60
2023-04-30T11:30:03.210Z,19.90
2023-04-30T11:32:35.585Z,20.00
2023-04-30T11:35:04.947Z,19.90
2023-04-30T11:37:34.648Z,19.90
2023-04-30T11:40:07.852Z,20.10
2023-04-30T11:42:39.325Z,20.20
2023-04-30T11:45:09.751Z,20.20
2023-04-30T11:47:42.906Z,20.00
2023-04-30T11:50:13.246Z,20.50
2023-04-30T11:52:41.778Z,20.90
2023-04-30T11:55:16.613Z,20.90
2023-04-30T11:57:45.760Z,20.60
2023-04-30T12:00:15.900Z,20.40
2023-04-30T12:02:45.778Z,20.40
2023-04-30T12:05:15.954Z,20.00
2023-04-30T12:07:49.162Z,20.10
2023-04-30T12:10:20.829Z,20.50
2023-04-30T12:12:51.327Z,20.30
2023-04-30T12:15:23.211Z,20.60
2023-04-30T12:17:51.248Z,20.40
2023-04-30T12:20:19.290Z,20.30
2023-04-30T12:22:47.588Z,20.50
2023-04-30T12:25:19.316Z,21.00
2023-04-30T12:27:50.257Z,21.20
2023-04-30T12:30:21.437Z,21.40
2023-04-30T12:32:52.559Z,21.50
2023-04-30T12:35:22.011Z,22.00
2023-04-30T12:37:52.198Z,22.00
2023-04-30T12:40:21.705Z,21.80
2023-04-30T12:42:51.812Z,21.70
2023-04-30T12:45:45.569Z,21.80
2023-04-30T12:48:14.509Z,21.90
2023-04-30T12:50:42.989Z,21.70
2023-04-30T12:53:11.171Z,21.80
2023-04-30T12:55:39.831Z,21.70
2023-04-30T12:58:11.154Z,21.70
2023-04-30T13:00:50.269Z,22.10
2023-04-30T13:03:20.382Z,22.10
2023-04-30T13:05:50.085Z,22.50
2023-04-30T13:08:19.098Z,22.50
2023-04-30T13:10:47.998Z,22.60
2023-04-30T13:13:20.322Z,22.40
2023-04-30T13:15:48.743Z,22.60
2023-04-30T13:18:16.707Z,22.60
2023-04-30T13:20:45.105Z,22.70
2023-04-30T13:23:13.135Z,22.60
2023-04-30T13:25:41.876Z,22.50
2023-04-30T13:28:10.038Z,22.80
2023-04-30T13:30:40.985Z,22.60
2023-04-30T13:33:09.487Z,22.60
2023-04-30T13:35:37.514Z,22.10
2023-04-30T13:38:06.954Z,21.90
2023-04-30T13:40:34.803Z,22.20
2023-04-30T13:43:05.278Z,22.10
2023-04-30T13:45:33.935Z,22.80
2023-04-30T13:48:03.567Z,22.50
2023-04-30T13:50:31.792Z,22.70
2023-04-30T13:52:59.917Z,23.20
2023-04-30T13:55:28.870Z,23.30
2023-04-30T13:57:58.458Z,23.70
2023-04-30T14:00:26.943Z,23.70
2023-04-30T14:02:55.691Z,24.10
2023-04-30T14:05:25.240Z,24.10
2023-04-30T14:07:53.274Z,24.00
2023-04-30T14:10:21.488Z,23.90
2023-04-30T14:12:49.707Z,23.90
2023-04-30T14:15:18.015Z,23.60
2023-04-30T14:17:46.322Z,23.80
2023-04-30T14:20:14.980Z,23.90
2023-04-30T14:22:44.416Z,24.30
2023-04-30T14:25:12.730Z,24.50
2023-04-30T14:27:41.452Z,25.10
2023-04-30T14:30:10.664Z,25.40
2023-04-30T14:32:38.689Z,25.00
2023-04-30T14:35:08.068Z,25.00
2023-04-30T14:37:36.065Z,25.00
2023-04-30T14:40:12.223Z,25.10
2023-04-30T14:42:40.193Z,25.00
2023-04-30T14:45:09.692Z,25.60
2023-04-30T14:47:38.883Z,25.50
2023-04-30T14:50:07.457Z,25.50
2023-04-30T14:52:35.338Z,24.90
2023-04-30T14:55:04.088Z,24.40
2023-04-30T14:57:34.633Z,23.80
2023-04-30T15:00:02.739Z,23.10
2023-04-30T15:02:30.956Z,23.10
2023-04-30T15:04:59.834Z,23.50
2023-04-30T15:07:28.364Z,23.50
2023-04-30T15:09:56.796Z,23.30
2023-04-30T15:12:25.308Z,23.90
2023-04-30T15:14:57.082Z,24.90
2023-04-30T15:17:27.958Z,25.20
2023-04-30T15:19:56.505Z,25.50
2023-04-30T15:22:27.345Z,25.00
2023-04-30T15:24:55.638Z,24.10
2023-04-30T15:27:26.158Z,24.20
2023-04-30T15:29:55.753Z,24.80
2023-04-30T15:32:24.048Z,24.40
2023-04-30T15:34:52.357Z,24.40
2023-04-30T15:37:21.169Z,23.90
2023-04-30T15:39:49.904Z,24.30
2023-04-30T15:42:18.355Z,24.30
2023-04-30T15:44:46.319Z,24.30
2023-04-30T15:47:15.814Z,24.40
2023-04-30T15:49:43.871Z,24.70
2023-04-30T15:52:12.100Z,24.80
2023-04-30T15:54:40.154Z,24.80
2023-04-30T15:57:08.822Z,24.90
2023-04-30T15:59:37.045Z,24.70
2023-04-30T16:02:05.147Z,24.90
2023-04-30T16:04:34.505Z,24.80
2023-04-30T16:07:03.284Z,25.00
2023-04-30T16:09:31.357Z,24.50
2023-04-30T16:11:59.938Z,24.00
2023-04-30T16:14:27.947Z,23.70
2023-04-30T16:16:57.158Z,22.90
2023-04-30T16:19:25.295Z,23.00
2023-04-30T16:21:54.861Z,22.90
2023-04-30T16:24:23.036Z,22.50
2023-04-30T16:26:51.232Z,22.30
2023-04-30T16:29:20.239Z,22.20
2023-04-30T16:31:48.364Z,21.90
2023-04-30T16:34:16.840Z,21.90
2023-04-30T16:36:45.013Z,21.90
2023-04-30T16:39:17.316Z,21.90
2023-04-30T16:41:45.872Z,21.80
2023-04-30T16:44:13.938Z,21.80
2023-04-30T16:46:42.455Z,22.00
2023-04-30T16:49:10.438Z,21.90
2023-04-30T16:51:38.435Z,22.00
2023-04-30T16:54:06.525Z,21.60
2023-04-30T16:56:35.959Z,21.30
2023-04-30T16:59:04.120Z,21.20
2023-04-30T17:01:34.046Z,21.10
2023-04-30T17:04:02.457Z,20.90
2023-04-30T17:06:33.101Z,20.60
2023-04-30T17:09:01.116Z,20.60
2023-04-30T17:11:29.375Z,20.50
2023-04-30T17:14:02.289Z,20.40
2023-04-30T17:16:31.425Z,20.30
2023-04-30T17:18:59.738Z,20.30
2023-04-30T17:21:29.807Z,20.10
2023-04-30T17:23:58.531Z,20.10
2023-04-30T17:26:26.922Z,20.00
2023-04-30T17:28:54.988Z,20.00
2023-04-30T17:31:26.222Z,20.00
2023-04-30T17:33:54.228Z,20.00
2023-04-30T17:36:22.204Z,19.90
2023-04-30T17:38:50.314Z,19.80
2023-04-30T17:41:19.762Z,19.80
2023-04-30T17:43:48.108Z,19.80
2023-04-30T17:46:18.707Z,19.60
2023-04-30T17:48:48.322Z,19.50
2023-04-30T17:51:16.270Z,19.40
2023-04-30T17:53:44.412Z,19.20
2023-04-30T17:56:13.933Z,19.10
2023-04-30T17:58:42.475Z,19.00
2023-04-30T18:01:10.457Z,19.00
2023-04-30T18:03:38.614Z,18.90
2023-04-30T18:06:09.344Z,18.80
2023-04-30T18:08:37.307Z,18.80
2023-04-30T18:11:05.494Z,18.70
2023-04-30T18:13:33.385Z,18.60
2023-04-30T18:16:01.691Z,18.60
2023-04-30T18:18:30.031Z,18.50
2023-04-30T18:20:58.440Z,18.50
2023-04-30T18:23:28.003Z,18.40
2023-04-30T18:25:56.606Z,18.30
2023-04-30T18:28:24.635Z,18.20
2023-04-30T18:30:52.668Z,18.10
2023-04-30T18:33:20.928Z,18.00
2023-04-30T18:35:51.361Z,17.90
2023-04-30T18:38:20.671Z,17.70
2023-04-30T18:40:54.165Z,17.50
2023-04-30T18:43:22.487Z,17.40
2023-04-30T18:45:51.195Z,17.30
2023-04-30T18:48:20.145Z,17.10
2023-04-30T18:50:48.466Z,17.00
2023-04-30T18:53:17.571Z,16.90
2023-04-30T18:55:46.215Z,16.80
2023-04-30T18:58:16.061Z,16.60
2023-04-30T19:00:44.455Z,16.50
2023-04-30T19:03:13.572Z,16.40
2023-04-30T19:05:44.073Z,16.30
2023-04-30T19:08:14.717Z,16.30
2023-04-30T19:10:42.776Z,16.20
2023-04-30T19:15:44.719Z,16.00
2023-04-30T19:18:13.819Z,15.90
2023-04-30T19:20:42.919Z,15.80
2023-04-30T19:23:11.010Z,15.80
2023-04-30T19:25:39.975Z,15.70
2023-04-30T19:28:10.176Z,15.60
2023-04-30T19:30:39.434Z,15.50
2023-04-30T19:33:12.589Z,15.30
2023-04-30T19:35:40.704Z,15.20
2023-04-30T19:38:08.997Z,15.10
2023-04-30T19:40:37.984Z,14.90
2023-04-30T19:43:06.278Z,14.80
2023-04-30T19:45:34.273Z,14.70
2023-04-30T19:48:02.559Z,14.60
2023-04-30T19:50:32.568Z,14.60
2023-04-30T19:53:00.983Z,14.50
2023-04-30T19:55:29.358Z,14.50
2023-04-30T19:57:57.728Z,14.50
2023-04-30T20:00:26.304Z,14.50
2023-04-30T20:02:55.108Z,14.50
2023-04-30T20:05:24.888Z,14.50
2023-04-30T20:07:54.784Z,14.40
2023-04-30T20:10:23.822Z,14.30
2023-04-30T20:12:53.465Z,14.30
2023-04-30T20:15:21.847Z,14.30
2023-04-30T20:17:50.132Z,14.30
2023-04-30T20:20:19.913Z,14.30
2023-04-30T20:22:50.859Z,14.20
2023-04-30T20:25:21.404Z,14.30
2023-04-30T20:27:49.885Z,14.30
2023-04-30T20:30:18.496Z,14.20
2023-04-30T20:32:46.944Z,14.20
2023-04-30T20:35:15.260Z,14.10
2023-04-30T20:37:43.549Z,14.10
2023-04-30T20:40:20.101Z,14.00
2023-04-30T20:42:49.623Z,14.00
2023-04-30T20:45:18.664Z,14.00
2023-04-30T20:47:46.769Z,13.90
2023-04-30T20:50:15.193Z,13.90
2023-04-30T20:52:43.330Z,13.90
2023-04-30T20:55:12.100Z,13.80
2023-04-30T20:57:42.344Z,13.80
2023-04-30T21:00:18.692Z,13.70
2023-04-30T21:02:47.699Z,13.70
2023-04-30T21:05:16.389Z,13.60
2023-04-30T21:07:44.473Z,13.60
2023-04-30T21:10:15.283Z,13.60
2023-04-30T21:12:43.581Z,13.60
2023-04-30T21:15:14.478Z,13.60
2023-04-30T21:17:42.603Z,13.50
2023-04-30T21:20:13.670Z,13.50
2023-04-30T21:22:42.232Z,13.60
2023-04-30T21:25:12.226Z,13.60
2023-04-30T21:27:40.448Z,13.60
2023-04-30T21:30:10.228Z,13.50
2023-04-30T21:32:40.016Z,13.50
2023-04-30T21:35:09.719Z,13.50
2023-04-30T21:37:37.801Z,13.50
2023-04-30T21:40:07.024Z,13.50
2023-04-30T21:42:34.982Z,13.50
2023-04-30T21:45:04.845Z,13.50
2023-04-30T21:47:32.864Z,13.50
2023-04-30T21:50:02.684Z,13.50
2023-04-30T21:52:31.351Z,13.40
2023-04-30T21:54:59.298Z,13.50
2023-04-30T21:57:27.327Z,13.50
2023-04-30T21:59:55.467Z,13.40
2023-04-30T22:02:24.602Z,13.30
2023-04-30T22:04:53.388Z,13.20
2023-04-30T22:07:27.374Z,13.10
2023-04-30T22:09:55.844Z,13.00
2023-04-30T22:12:28.951Z,12.90
2023-04-30T22:14:57.726Z,12.90
2023-04-30T22:17:26.627Z,12.90
2023-04-30T22:19:55.003Z,12.80
2023-04-30T22:22:25.741Z,12.80
2023-04-30T22:24:54.224Z,12.80
2023-04-30T22:27:23.114Z,12.80
2023-04-30T22:29:51.697Z,12.70
2023-04-30T22:32:20.077Z,12.60
2023-04-30T22:34:48.645Z,12.50
2023-04-30T22:37:16.499Z,12.40
2023-04-30T22:39:46.747Z,12.30
2023-04-30T22:42:15.828Z,12.20
2023-04-30T22:44:44.703Z,12.20
2023-04-30T22:47:13.351Z,12.10
2023-04-30T22:49:42.276Z,12.10
2023-04-30T22:52:11.783Z,12.00
2023-04-30T22:54:42.535Z,12.00
2023-04-30T22:57:12.120Z,12.00
2023-04-30T22:59:40.414Z,12.00
2023-04-30T23:02:09.834Z,11.90
2023-04-30T23:04:38.670Z,11.90
2023-04-30T23:07:07.757Z,11.80
2023-04-30T23:09:36.352Z,11.80
2023-04-30T23:12:04.579Z,11.80
2023-04-30T23:14:34.704Z,11.80
2023-04-30T23:17:03.161Z,11.80
2023-04-30T23:19:31.360Z,11.90
2023-04-30T23:21:59.348Z,11.90
2023-04-30T23:24:27.569Z,11.90
2023-04-30T23:26:57.751Z,11.80
2023-04-30T23:29:27.075Z,11.80
2023-04-30T23:31:56.764Z,11.80
2023-04-30T23:34:28.084Z,11.80
2023-04-30T23:36:56.473Z,11.80
2023-04-30T23:39:27.210Z,11.80
2023-04-30T23:41:55.142Z,11.80
2023-04-30T23:44:23.720Z,11.70
2023-04-30T23:46:52.172Z,11.70
2023-04-30T23:49:25.486Z,11.70
2023-04-30T23:51:54.091Z,11.60
2023-04-30T23:54:22.586Z,11.50
2023-04-30T23:56:51.602Z,11.50
2023-04-30T23:59:19.853Z,11.40
